createdAt,value
2019-04-23T00:02:13.528Z,4.65
2019-04-23T00:04:36.740Z,4.67
2019-04-23T00:07:15.818Z,4.08
2019-04-23T00:09:40.983Z,4.87
2019-04-23T00:12:11.775Z,4.33
2019-04-23T00:14:48.038Z,4.25
2019-04-23T00:17:04.450Z,4.90
2019-04-23T00:19:31.145Z,4.75
2019-04-23T00:21:59.980Z,4.42
2019-04-23T00:24:56.800Z,4.40
2019-04-23T00:27:27.523Z,4.80
2019-04-23T00:29:48.393Z,5.45
2019-04-23T00:32:08.170Z,5.30
2019-04-23T00:34:45.314Z,4.30
2019-04-23T00:37:01.613Z,3.95
2019-04-23T00:39:39.100Z,4.75
2019-04-23T00:42:05.145Z,4.22
2019-04-23T00:44:32.436Z,4.22
2019-04-23T00:46:56.420Z,4.70
2019-04-23T00:49:29.259Z,4.53
2019-04-23T00:51:58.389Z,3.52
2019-04-23T00:54:26.357Z,4.42
2019-04-23T00:57:01.336Z,4.33
2019-04-23T00:59:22.265Z,4.62
2019-04-23T01:04:20.842Z,3.87
2019-04-23T01:06:51.210Z,4.42
2019-04-23T01:09:14.249Z,3.87
2019-04-23T01:11:44.199Z,3.80
2019-04-23T01:14:13.417Z,4.53
2019-04-23T01:16:38.236Z,4.42
2019-04-23T01:19:06.770Z,4.83
2019-04-23T01:21:22.399Z,4.75
2019-04-23T01:24:06.443Z,4.47
2019-04-23T01:27:29.759Z,4.28
2019-04-23T01:29:42.559Z,4.67
2019-04-23T01:32:05.476Z,3.83
2019-04-23T01:34:40.041Z,4.45
2019-04-23T01:37:14.835Z,4.55
2019-04-23T01:39:32.791Z,4.42
2019-04-23T01:42:16.555Z,4.70
2019-04-23T01:44:36.678Z,4.60
2019-04-23T01:47:04.185Z,4.47
2019-04-23T01:49:39.183Z,5.25
2019-04-23T01:52:00.342Z,4.35
2019-04-23T01:54:26.068Z,4.22
2019-04-23T01:56:56.654Z,4.83
2019-04-23T01:59:24.531Z,4.75
2019-04-23T02:01:50.269Z,4.25
2019-04-23T02:04:22.949Z,4.42
2019-04-23T02:06:51.918Z,4.80
2019-04-23T02:09:16.689Z,4.47
2019-04-23T02:14:16.371Z,4.62
2019-04-23T02:16:45.906Z,4.47
2019-04-23T02:19:19.947Z,5.00
2019-04-23T02:21:55.125Z,5.30
2019-04-23T02:24:24.721Z,4.53
2019-04-23T02:26:50.471Z,4.92
2019-04-23T02:29:37.870Z,5.22
2019-04-23T02:34:43.305Z,5.05
2019-04-23T02:36:54.553Z,4.90
2019-04-23T02:39:29.388Z,5.05
2019-04-23T02:44:36.660Z,4.78
2019-04-23T02:46:59.475Z,4.80
2019-04-23T02:51:54.473Z,5.55
2019-04-23T02:54:26.091Z,4.70
2019-04-23T02:59:19.430Z,4.58
2019-04-23T03:09:27.818Z,5.03
2019-04-23T03:14:09.401Z,4.78
2019-04-23T03:19:09.654Z,4.70
2019-04-23T03:21:42.636Z,5.50
2019-04-23T03:24:34.982Z,4.55
2019-04-23T03:27:16.568Z,5.67
2019-04-23T03:39:32.932Z,5.30
2019-04-23T03:42:02.662Z,5.40
2019-04-23T03:44:14.535Z,5.60
2019-04-23T03:49:09.614Z,6.05
2019-04-23T03:51:43.572Z,5.97
2019-04-23T03:54:26.270Z,6.67
2019-04-23T03:56:56.790Z,5.90
2019-04-23T03:59:26.620Z,5.92
2019-04-23T04:01:40.916Z,6.47
2019-04-23T04:06:51.174Z,5.97
2019-04-23T04:09:13.257Z,5.75
2019-04-23T04:11:31.229Z,6.20
2019-04-23T04:14:23.701Z,6.40
2019-04-23T04:16:26.536Z,6.70
2019-04-23T04:24:03.199Z,6.35
2019-04-23T04:26:21.103Z,5.78
2019-04-23T04:28:52.745Z,6.85
2019-04-23T04:31:37.429Z,6.45
2019-04-23T04:34:11.350Z,6.45
2019-04-23T04:41:14.235Z,7.03
2019-04-23T04:44:07.360Z,6.70
2019-04-23T04:48:46.496Z,7.20
2019-04-23T04:56:25.274Z,7.58
2019-04-23T04:58:34.450Z,7.90
2019-04-23T05:01:16.550Z,7.40
2019-04-23T05:08:34.500Z,7.37
2019-04-23T05:11:00.093Z,7.20
2019-04-23T05:18:31.751Z,7.42
2019-04-23T05:20:58.494Z,7.60
2019-04-23T05:23:52.436Z,7.72
2019-04-23T05:26:11.546Z,7.22
2019-04-23T05:28:47.122Z,8.18
2019-04-23T05:31:12.367Z,8.30
2019-04-23T05:33:52.313Z,7.67
2019-04-23T05:38:48.577Z,7.92
2019-04-23T05:43:32.869Z,8.13
2019-04-23T05:45:59.211Z,8.05
2019-04-23T05:48:24.864Z,8.25
2019-04-23T05:51:06.083Z,8.68
2019-04-23T05:53:29.070Z,8.13
2019-04-23T05:55:56.805Z,9.05
2019-04-23T05:58:23.512Z,9.43
2019-04-23T06:01:01.363Z,8.28
2019-04-23T06:03:26.464Z,9.13
2019-04-23T06:05:56.543Z,7.92
2019-04-23T06:08:25.274Z,9.15
2019-04-23T06:13:19.293Z,10.08
2019-04-23T06:15:46.531Z,9.58
2019-04-23T06:18:28.549Z,8.90
2019-04-23T06:20:51.757Z,9.45
2019-04-23T06:23:27.199Z,10.00
2019-04-23T06:26:10.103Z,9.20
2019-04-23T06:28:15.521Z,10.55
2019-04-23T06:33:19.897Z,10.03
2019-04-23T06:35:38.578Z,9.63
2019-04-23T06:40:33.660Z,10.88
2019-04-23T06:43:18.090Z,10.85
2019-04-23T06:45:46.002Z,10.93
2019-04-23T06:48:21.858Z,11.10
2019-04-23T06:50:54.550Z,10.18
2019-04-23T06:53:06.479Z,11.90
2019-04-23T06:55:42.126Z,11.60
2019-04-23T06:58:12.330Z,11.65
2019-04-23T07:00:41.272Z,11.83
2019-04-23T07:03:14.827Z,12.27
2019-04-23T07:06:11.436Z,11.57
2019-04-23T07:08:34.147Z,11.20
2019-04-23T07:10:57.923Z,11.93
2019-04-23T07:13:34.375Z,13.08
2019-04-23T07:15:58.145Z,12.50
2019-04-23T07:18:18.151Z,12.35
2019-04-23T07:20:50.589Z,13.08
2019-04-23T07:23:24.330Z,12.65
2019-04-23T07:25:46.794Z,13.05
2019-04-23T07:28:19.964Z,13.13
2019-04-23T07:30:56.036Z,14.03
2019-04-23T07:33:11.923Z,13.98
2019-04-23T07:35:49.488Z,14.25
2019-04-23T07:38:32.206Z,15.03
2019-04-23T07:41:06.391Z,13.48
2019-04-23T07:43:50.749Z,13.45
2019-04-23T07:46:33.220Z,13.62
2019-04-23T07:48:47.707Z,14.55
2019-04-23T07:51:19.543Z,13.98
2019-04-23T07:53:53.458Z,14.75
2019-04-23T07:56:21.516Z,15.50
2019-04-23T07:58:41.420Z,15.58
2019-04-23T08:01:14.320Z,15.45
2019-04-23T08:03:43.915Z,16.23
2019-04-23T08:06:22.037Z,15.08
2019-04-23T08:08:43.905Z,15.30
2019-04-23T08:11:33.874Z,15.40
2019-04-23T08:13:53.357Z,15.53
2019-04-23T08:16:18.253Z,16.17
2019-04-23T08:18:45.115Z,17.57
2019-04-23T08:21:09.813Z,15.95
2019-04-23T08:23:47.241Z,16.73
2019-04-23T08:26:36.308Z,16.35
2019-04-23T08:31:33.620Z,16.60
2019-04-23T08:34:11.034Z,18.17
2019-04-23T08:36:29.538Z,18.62
2019-04-23T08:38:51.212Z,19.45
2019-04-23T08:41:28.142Z,19.48
2019-04-23T08:44:21.688Z,19.90
2019-04-23T08:46:56.745Z,20.50
2019-04-23T08:49:25.737Z,22.15
2019-04-23T08:51:52.207Z,21.87
2019-04-23T08:54:26.809Z,20.52
2019-04-23T08:56:47.967Z,20.37
2019-04-23T08:59:18.088Z,22.65
2019-04-23T09:01:46.359Z,21.07
2019-04-23T09:04:09.771Z,22.22
2019-04-23T09:06:35.387Z,23.70
2019-04-23T09:09:10.445Z,21.80
2019-04-23T09:19:04.578Z,22.93
2019-04-23T09:21:30.958Z,22.45
2019-04-23T09:26:22.705Z,22.98
2019-04-23T09:31:55.482Z,24.57
2019-04-23T09:34:07.521Z,22.67
2019-04-23T09:36:34.530Z,23.83
2019-04-23T09:39:20.624Z,23.95
2019-04-23T09:41:42.344Z,24.25
2019-04-23T09:44:47.246Z,24.35
2019-04-23T09:47:27.340Z,23.52
2019-04-23T09:49:44.373Z,22.87
2019-04-23T09:52:11.175Z,23.50
2019-04-23T09:56:57.366Z,23.02
2019-04-23T10:01:50.160Z,22.82
2019-04-23T10:04:17.042Z,23.07
2019-04-23T10:06:33.380Z,25.37
2019-04-23T10:09:02.128Z,24.25
2019-04-23T10:11:28.407Z,25.15
2019-04-23T10:13:56.646Z,23.95
2019-04-23T10:16:26.326Z,23.73
2019-04-23T10:18:53.278Z,24.32
2019-04-23T10:21:21.464Z,26.30
2019-04-23T10:23:49.597Z,25.85
2019-04-23T10:26:16.587Z,26.33
2019-04-23T10:28:58.206Z,25.82
2019-04-23T10:31:25.297Z,25.77
2019-04-23T10:33:52.458Z,24.25
2019-04-23T10:36:21.965Z,24.60
2019-04-23T10:38:55.962Z,23.50
2019-04-23T10:41:18.207Z,24.07
2019-04-23T10:43:50.059Z,25.65
2019-04-23T10:46:43.317Z,27.00
2019-04-23T10:54:36.321Z,25.40
2019-04-23T10:56:59.063Z,26.85
2019-04-23T10:59:37.268Z,31.25
2019-04-23T11:02:23.959Z,26.15
2019-04-23T11:07:20.254Z,26.65
2019-04-23T11:12:16.290Z,25.82
2019-04-23T11:14:46.212Z,26.33
2019-04-23T11:17:03.722Z,27.07
2019-04-23T11:19:40.434Z,26.25
2019-04-23T11:22:22.774Z,27.32
2019-04-23T11:27:10.256Z,28.70
2019-04-23T11:29:34.103Z,27.45
2019-04-23T11:32:08.521Z,30.10
2019-04-23T11:34:51.604Z,28.90
2019-04-23T11:37:01.752Z,30.52
2019-04-23T11:39:32.586Z,30.52
2019-04-23T11:41:58.357Z,30.17
2019-04-23T11:44:31.895Z,29.80
2019-04-23T11:49:34.755Z,31.35
2019-04-23T11:51:56.404Z,30.85
2019-04-23T11:54:19.354Z,29.63
2019-04-23T11:57:15.036Z,30.48
2019-04-23T11:59:25.613Z,29.63
2019-04-23T12:04:21.228Z,30.77
2019-04-23T12:09:40.114Z,31.70
2019-04-23T12:12:10.761Z,32.67
2019-04-23T12:27:06.101Z,38.13
2019-04-23T12:29:46.282Z,39.45
2019-04-23T12:34:59.425Z,47.55
2019-04-23T12:37:33.396Z,30.65
2019-04-23T12:40:00.167Z,32.17
2019-04-23T12:42:45.117Z,32.05
2019-04-23T12:44:58.107Z,31.68
2019-04-23T12:47:38.437Z,31.82
2019-04-23T12:50:05.009Z,30.90
2019-04-23T12:52:20.875Z,32.23
2019-04-23T12:59:43.838Z,33.75
2019-04-23T13:02:20.884Z,32.98
2019-04-23T13:04:42.100Z,34.23
2019-04-23T13:07:11.459Z,33.25
2019-04-23T13:09:48.839Z,28.80
2019-04-23T13:12:20.559Z,30.10
2019-04-23T13:14:41.301Z,34.10
2019-04-23T13:17:12.599Z,33.63
2019-04-23T13:19:51.374Z,33.58
2019-04-23T13:22:09.931Z,28.20
2019-04-23T13:24:33.061Z,29.42
2019-04-23T13:27:15.659Z,25.77
2019-04-23T13:29:43.504Z,22.60
2019-04-23T13:31:59.009Z,27.02
2019-04-23T13:34:41.410Z,26.93
2019-04-23T13:37:07.360Z,25.00
2019-04-23T13:39:33.296Z,27.42
2019-04-23T13:42:07.589Z,23.50
2019-04-23T13:44:25.706Z,23.57
2019-04-23T13:47:00.909Z,23.20
2019-04-23T13:49:28.129Z,26.37
2019-04-23T13:51:57.260Z,24.95
2019-04-23T13:54:39.389Z,24.65
2019-04-23T13:57:24.102Z,22.27
2019-04-23T13:59:31.454Z,24.35
2019-04-23T14:01:48.791Z,29.15
2019-04-23T14:04:40.323Z,28.07
2019-04-23T14:07:09.484Z,23.25
2019-04-23T14:12:09.117Z,23.30
2019-04-23T14:14:58.316Z,23.60
2019-04-23T14:17:19.841Z,24.47
2019-04-23T14:19:43.375Z,24.30
2019-04-23T14:22:20.958Z,23.47
2019-04-23T14:24:45.205Z,29.80
2019-04-23T14:27:07.334Z,28.77
2019-04-23T14:29:38.853Z,41.45
2019-04-23T14:34:31.273Z,25.48
2019-04-23T14:37:09.568Z,29.35
2019-04-23T14:39:28.774Z,33.38
2019-04-23T14:41:56.547Z,35.58
2019-04-23T14:44:19.679Z,30.17
2019-04-23T14:47:05.315Z,29.40
2019-04-23T14:49:26.109Z,26.75
2019-04-23T14:55:01.539Z,23.22
2019-04-23T14:57:09.742Z,33.00
2019-04-23T14:59:22.371Z,27.48
2019-04-23T15:01:58.261Z,21.80
2019-04-23T15:04:27.201Z,22.32
2019-04-23T15:09:27.553Z,23.85
2019-04-23T15:12:01.759Z,24.05
2019-04-23T15:14:19.438Z,28.67
2019-04-23T15:16:57.106Z,22.90
2019-04-23T15:29:04.584Z,23.18
2019-04-23T15:31:48.778Z,21.75
2019-04-23T15:34:17.764Z,30.15
2019-04-23T15:41:53.001Z,23.83
2019-04-23T15:44:16.686Z,22.65
2019-04-23T15:46:42.738Z,21.10
2019-04-23T15:56:40.943Z,17.85
2019-04-23T15:59:13.049Z,17.73
2019-04-23T16:03:33.848Z,18.10
2019-04-23T16:06:02.529Z,60.65
2019-04-23T16:14:11.632Z,31.77
2019-04-23T16:16:31.537Z,24.55
2019-04-23T16:21:41.606Z,23.38
2019-04-23T16:24:01.103Z,22.10
2019-04-23T16:26:32.506Z,22.13
2019-04-23T16:29:21.154Z,28.32
2019-04-23T16:33:54.352Z,22.30
2019-04-23T16:38:52.147Z,30.30
2019-04-23T16:41:27.719Z,34.25
2019-04-23T16:43:49.065Z,25.50
2019-04-23T16:46:24.024Z,26.30
2019-04-23T16:51:27.858Z,25.90
2019-04-23T16:53:47.036Z,24.52
2019-04-23T16:58:49.612Z,24.32
2019-04-23T17:03:36.204Z,22.60
2019-04-23T17:06:10.105Z,25.10
2019-04-23T17:11:09.094Z,24.75
2019-04-23T17:13:44.734Z,22.40
2019-04-23T17:18:33.215Z,37.55
2019-04-23T17:20:56.300Z,26.42
2019-04-23T17:23:39.631Z,28.38
2019-04-23T17:25:55.851Z,25.68
2019-04-23T17:28:24.739Z,26.68
2019-04-23T17:31:15.135Z,26.50
2019-04-23T17:33:27.610Z,30.48
2019-04-23T17:36:05.463Z,29.30
2019-04-23T17:38:34.039Z,29.12
2019-04-23T17:41:17.740Z,30.68
2019-04-23T17:43:54.526Z,29.23
2019-04-23T17:46:14.342Z,26.82
2019-04-23T17:48:43.837Z,31.10
2019-04-23T17:53:58.737Z,30.50
2019-04-23T17:56:18.486Z,29.67
2019-04-23T18:03:49.198Z,30.65
2019-04-23T18:06:21.651Z,28.07
2019-04-23T18:08:44.074Z,30.10
2019-04-23T18:11:14.393Z,32.48
2019-04-23T18:13:45.963Z,32.40
2019-04-23T18:16:13.758Z,38.55
2019-04-23T18:21:23.776Z,35.08
2019-04-23T18:24:14.902Z,35.13
2019-04-23T18:26:36.013Z,33.65
2019-04-23T18:29:07.008Z,33.88
2019-04-23T18:31:31.793Z,34.73
2019-04-23T18:34:16.838Z,37.05
2019-04-23T18:36:38.891Z,39.78
2019-04-23T18:39:09.410Z,33.23
2019-04-23T18:41:42.707Z,39.05
2019-04-23T18:46:37.143Z,35.28
2019-04-23T18:48:57.892Z,33.00
2019-04-23T18:51:32.094Z,34.35
2019-04-23T18:53:52.980Z,36.65
2019-04-23T18:56:58.374Z,35.98
2019-04-23T18:59:01.004Z,31.45
2019-04-23T19:06:34.413Z,35.20
2019-04-23T19:09:10.040Z,35.52
2019-04-23T19:11:59.840Z,42.33
2019-04-23T19:14:30.869Z,38.58
2019-04-23T19:17:25.011Z,39.78
2019-04-23T19:19:24.465Z,42.35
2019-04-23T19:22:04.399Z,44.65
2019-04-23T19:24:13.807Z,43.33
2019-04-23T19:27:03.668Z,47.53
2019-04-23T19:29:14.189Z,42.55
2019-04-23T19:34:35.646Z,40.33
2019-04-23T19:36:54.265Z,40.23
2019-04-23T19:44:08.451Z,34.92
2019-04-23T19:49:14.986Z,41.80
2019-04-23T19:51:41.483Z,35.30
2019-04-23T19:56:45.163Z,39.92
2019-04-23T19:59:05.132Z,38.78
2019-04-23T20:01:43.449Z,38.60
2019-04-23T20:04:18.098Z,41.18
2019-04-23T20:06:58.733Z,42.93
2019-04-23T20:09:21.929Z,40.25
2019-04-23T20:11:34.706Z,43.00
2019-04-23T20:16:40.089Z,47.15
2019-04-23T20:18:54.778Z,39.53
2019-04-23T20:21:21.207Z,46.10
2019-04-23T20:24:04.865Z,44.18
2019-04-23T20:26:17.221Z,41.88
2019-04-23T20:39:12.237Z,45.90
2019-04-23T20:42:07.785Z,41.02
2019-04-23T20:44:21.687Z,41.20
2019-04-23T20:46:52.508Z,40.80
2019-04-23T20:49:21.304Z,38.00
2019-04-23T20:51:57.494Z,34.23
2019-04-23T20:54:22.663Z,31.42
2019-04-23T20:57:00.524Z,40.88
2019-04-23T20:59:33.638Z,34.30
2019-04-23T21:02:27.270Z,32.98
2019-04-23T21:04:51.024Z,35.85
2019-04-23T21:07:15.949Z,35.15
2019-04-23T21:09:52.642Z,35.20
2019-04-23T21:12:14.254Z,34.95
2019-04-23T21:15:03.218Z,41.88
2019-04-23T21:17:04.132Z,38.28
2019-04-23T21:19:39.426Z,37.23
2019-04-23T21:22:09.919Z,34.15
2019-04-23T21:24:37.442Z,35.28
2019-04-23T21:27:15.402Z,37.10
2019-04-23T21:29:52.090Z,41.63
2019-04-23T21:32:13.235Z,38.98
2019-04-23T21:34:44.474Z,45.60
2019-04-23T21:37:23.846Z,44.40
2019-04-23T21:40:24.073Z,45.80
2019-04-23T21:45:02.666Z,38.28
2019-04-23T21:47:42.393Z,40.45
2019-04-23T21:52:54.918Z,43.90
2019-04-23T21:55:30.637Z,43.85
2019-04-23T21:57:59.814Z,47.95
2019-04-23T22:00:28.997Z,47.50
2019-04-23T22:02:54.671Z,38.95
2019-04-23T22:05:26.920Z,40.05
2019-04-23T22:10:22.027Z,42.03
2019-04-23T22:13:02.179Z,45.83
2019-04-23T22:15:16.423Z,42.67
2019-04-23T22:17:44.627Z,48.20
2019-04-23T22:20:21.388Z,49.83
2019-04-23T22:22:51.284Z,50.85
2019-04-23T22:25:11.490Z,50.88
2019-04-23T22:27:40.868Z,49.75
2019-04-23T22:30:04.532Z,48.42
2019-04-23T22:32:47.732Z,48.13
2019-04-23T22:37:32.372Z,46.20
2019-04-23T22:39:59.351Z,47.98
2019-04-23T22:42:57.136Z,47.90
2019-04-23T22:45:05.660Z,43.92
2019-04-23T22:47:34.557Z,48.17
2019-04-23T22:50:02.698Z,47.58
2019-04-23T22:57:20.986Z,43.30
2019-04-23T23:00:02.369Z,43.83
2019-04-23T23:05:07.213Z,43.98
2019-04-23T23:07:39.463Z,49.50
2019-04-23T23:10:15.484Z,44.63
2019-04-23T23:12:33.445Z,50.65
2019-04-23T23:15:01.024Z,45.00
2019-04-23T23:17:27.051Z,43.00
2019-04-23T23:20:01.726Z,41.37
2019-04-23T23:22:19.350Z,43.87
2019-04-23T23:25:03.360Z,46.50
2019-04-23T23:27:15.451Z,42.15
2019-04-23T23:29:56.088Z,40.60
2019-04-23T23:32:24.415Z,44.30
2019-04-23T23:35:04.316Z,43.50
2019-04-23T23:37:13.334Z,39.33
2019-04-23T23:40:04.736Z,43.05
2019-04-23T23:42:11.144Z,39.85
2019-04-23T23:52:22.017Z,38.25
2019-04-23T23:54:57.814Z,41.05
2019-04-23T23:57:12.529Z,41.02
